Latest 15 Minute Observations

23 Stations

15 Minute Data | America/Los_Angeles
as of 1/20/21 5:26 PM PST
Station Date Time Temp (°F) RH (%) Dew Pt (°F) Wet Bulb (°F) Canopy Temp (°F) Wind Dir (°) Wind Spd (mph) Wind Gust (mph) Latest Rain (In) Daily Rain (In) Daily Min Temp (°F) Daily Max Temp (°F) Daily Leaf Wet Hrs (hrs)
Ukiah-SE (Ruddick) 1/20/21 1715 57.3   3.4 35   18 29.8   14.8 44.8   2.2 56.5   2.8 WNW | 301 1.1 2.7 0.00 0.00 27.0 67.5 1.4
Upper Lake 1/20/21 1715 54.8   3.0 33   20 26.3   19.0 42.5   2.6 - NW | 311 3.3 5.1 0.00 0.00 27.8 63.2 0.0
Scotts Valley 1/20/21 1715 56.2   1.0 3   0 -23.8   0.6 36.5   0.5 - W | 265 0.7 2.7 0.00 0.00 22.0 65.5 0.0
Kelseyville 1/20/21 1715 57.2   0.2 32   13 27.6   12.7 44.0   3.2 - N | 352 1.1 2.2 0.00 0.00 25.9 61.7 0.0
Kelseyville (Clark Drive) 1/20/21 1715 55.6   3.2 - - - - - - - 0.00 0.00 25.8 66.1 -
Kelseyville Remote 1/20/21 1715 58.4   0.2 22   9 20.0   12.1 42.5   2.4 - - - - 0.00 0.00 27.3 68.0 -
Kelseyville-South 1/20/21 1715 59.5   2.7 22   10 20.9   15.5 43.2   4.1 - WNW | 301 0.1 2.1 0.00 0.00 25.8 63.5 0.0
Bell Hill-West 1/20/21 1715 53.0   3.5 37   19 27.2   14.3 41.9   1.8 - N | 0 0.0 0.0 0.00 0.00 26.9 63.6 -
Wight Way 1/20/21 1700 55.9   1.4 30   14 24.9   12.8 42.6   2.2 - S | 185 0.2 1.5 0.00 0.00 23.7 67.2 -
High Valley Ridgeline (Brassfield) 1/20/21 1715 56.0   2.4 21   7 16.5   11.2 29.9   7.8 - W | 263 6.1 9.4 0.00 0.00 44.7 60.4 -
Ridgeline Top (Brassfield) 1/20/21 1715 53.8   0.6 - - - - - - - - - 44.6 58.7 -
Ridgeline Low (Brassfield) 1/20/21 1715 55.8   1.5 - - - - - - - - - 37.1 59.1 -
High Valley Winery 1/20/21 1715 55.7   0.0 23   9 18.2   10.9 18.2   10.9 - W | 261 3.4 6.1 0.00 0.00 26.6 62.7 -
Lower Lake 1/20/21 1715 53.3   1.8 30   14 22.8   12.3 40.8   1.7 - WSW | 240 3.5 4.8 0.00 0.00 32.9 63.2 -
Red Hills (Beckstoffer) 1/20/21 1715 50.6   4.0 35   19 24.0   14.8 39.8   1.2 - - - - - - 23.9 63.4 -
Middletown (Diamond D) 1/20/21 1715 57.4   0.6 29   12 25.8   11.7 43.5   2.5 - WSW | 241 2.5 4.6 0.00 0.00 31.2 66.1 -
Middletown-West (Bella Vista) 1/20/21 1715 55.5   1.0 34   13 27.4   11.0 - - - - - 0.00 0.00 29.0 68.4 -
Middletown-South 1/20/21 1715 49.6   8.1 50   35 31.8   21.0 41.8   1.5 - SW | 216 0.8 2.4 0.00 0.00 30.5 66.6 -
Lower Bohn 1/20/21 1715 48.4   9.4 45   27 28.0   12.9 39.9   1.3 - SSW | 208 1.9 3.3 0.00 0.00 25.1 70.0 -
Upper Bohn-North 1/20/21 1715 57.9   0.6 25   11 22.3   13.1 42.8   2.4 - S | 189 1.2 2.0 0.00 0.00 38.4 69.5 -
Upper Bohn-South 1/20/21 1715 57.7   1.3 20   4 16.7   4.6 41.4   0.2 - WNW | 295 2.0 4.8 0.00 0.00 38.3 70.3 -
Morgan Valley 1/20/21 1715 55.6   3.6 17   3 12.0   7.1 39.6   2.9 - WNW | 300 5.6 7.6 0.00 0.00 46.4 59.6 -
Cow Mountain 1/20/21 1715 49.2   1.1 - - - - W | 266 12.1 17.5 0.00 0.00 42.4 53.9 -
Max     59.5 50 31.8 44.8 - - 12.1 17.5 0.00 0.00 46.4 70.3 1.4
Avg     55.0 29 21.0 39.8 - - 2.7 4.6 0.00 - - - -
Min     48.4 3 -23.8 18.2 - - 0.0 0.0 0.00 0.00 22.0 53.9 0.0